Nearby METAR Reports

KLNK - Lincoln, Nebraska, USA
Distance from station: WNW 8mi, 13km
Updated: Wed, 17-Jul-2024 7:54am CDT
Clear
Clear
 Wind from N
Wind: N 8 mph, 13 km/h
Temperature: 70°F, 21°C
Dew Point: 63°F, 17°C
Humidity: 78%
Barometer: 30.11 inHg, 1019.6 hPa
Clouds: Clear
Visibility: 7 miles, 11 km
2024/07/17 12:54 KLNK 171254Z 36007KT 7SM CLR 21/17 A3011 RMK AO2 SLP187 T02060172
KAHQ - Wahoo, Nebraska, USA
Distance from station: N 31mi, 49km
Updated: Wed, 17-Jul-2024 8:15am CDT
Clear
Clear
 Wind from NNE
Wind: NNE 7 mph, 11 km/h
Temperature: 68°F, 20°C
Dew Point: 64°F, 18°C
Humidity: 88%
Barometer: 30.13 inHg, 1020.3 hPa
Clouds: Clear
Visibility: 10 miles, 16 km
2024/07/17 13:15 KAHQ 171315Z AUTO 02006KT 10SM CLR 20/18 A3013 RMK AO2 T01960177
 
KBIE - Beatrice Municip, Nebraska, USA
Distance from station: S 36mi, 57km
Updated: Wed, 17-Jul-2024 8:15am CDT

 
2024/07/17 13:15 KBIE 171315Z AUTO RMK AO2 PWINO PNO TSNO
KMLE - Omaha/Millard, Nebraska, USA
Distance from station: NE 39mi, 63km
Updated: Wed, 17-Jul-2024 8:15am CDT
Clear
Clear
 Wind from calm
Wind: Calm
Temperature: 70°F, 21°C
Dew Point: 61°F, 16°C
Humidity: 73%
Barometer: 30.12 inHg, 1020 hPa
Clouds: Clear
Visibility: 10 miles, 16 km
2024/07/17 13:15 KMLE 171315Z AUTO 00000KT 10SM CLR 21/16 A3012 RMK AO2 T02110161
 
KPMV - Plattsmouth Muni, Nebraska, USA
Distance from station: ENE 39mi, 63km
Updated: Wed, 17-Jul-2024 8:15am CDT
Clear
Clear
 Wind from NNE
Wind: NNE 3 mph, 6 km/h
Temperature: 70°F, 21°C
Dew Point: 64°F, 18°C
Humidity: 83%
Barometer: 30.12 inHg, 1020 hPa
Clouds: Clear
Visibility: 10 miles, 16 km
2024/07/17 13:15 KPMV 171315Z AUTO 02003KT 10SM CLR 21/18 A3012 RMK AO2 T02060175
KAFK - Nebraska City, Nebraska, USA
Distance from station: ESE 43mi, 69km
Updated: Wed, 17-Jul-2024 8:15am CDT
Mostly Cloudy
Mostly Cloudy
 Wind from N
Wind: N 9 mph, 15 km/h
Temperature: 70°F, 21°C
Dew Point: 64°F, 18°C
Humidity: 83%
Barometer: 30.11 inHg, 1019.6 hPa
Clouds: Mostly Cloudy
Visibility: 10 miles, 16 km
Cloud details: Partly Cloudy 4100 ft
Mostly Cloudy 4900 ft
2024/07/17 13:15 KAFK 171315Z AUTO 01008KT 10SM SCT041 BKN049 21/18 A3011 RMK AO2 T02050184
 
KOFF - Offutt Afb/Belle, Nebraska, USA
Distance from station: ENE 44mi, 70km
Updated: Wed, 17-Jul-2024 7:55am CDT
Clear
Clear
 Wind from N
Wind: N 6 mph, 9 km/h
Temperature: 72°F, 22°C
Dew Point: 63°F, 17°C
Humidity: 73%
Barometer: 30.09 inHg, 1019 hPa
Clouds: Clear
Visibility: 10 miles, 16 km
2024/07/17 12:55 KOFF 171255Z AUTO 01005KT 10SM CLR 22/17 A3009 RMK AO2 SLP185 T02180167 $
KFET - Fremont Muni Arp, Nebraska, USA
Distance from station: N 46mi, 74km
Updated: Wed, 17-Jul-2024 8:15am CDT
Clear
Clear
 Wind from N
Wind: N 7 mph, 11 km/h
Temperature: 68°F, 20°C
Dew Point: 61°F, 16°C
Humidity: 78%
Barometer: 30.14 inHg, 1020.7 hPa
Clouds: Clear
Visibility: 10 miles, 16 km
2024/07/17 13:15 KFET 171315Z AUTO 36006KT 10SM CLR 20/16 A3014 RMK AO2 T01950160
 
KBTA - Blair Muni, Nebraska, USA
Distance from station: NNE 51mi, 82km
Updated: Wed, 17-Jul-2024 8:15am CDT
Clear
Clear
 Wind from N
Wind: N 6 mph, 9 km/h
Temperature: 68°F, 20°C
Dew Point: 63°F, 17°C
Humidity: 83%
Barometer: 30.13 inHg, 1020.3 hPa
Clouds: Clear
Visibility: 7 miles, 11 km
2024/07/17 13:15 KBTA 171315Z AUTO 01005KT 7SM CLR 20/17 A3013 RMK AO2 T01970167
KJYR - York, Nebraska, USA
Distance from station: W 52mi, 84km
Updated: Wed, 17-Jul-2024 8:15am CDT
Clear
Clear
 Wind from N
Wind: N 8 mph, 13 km/h
Temperature: 66°F, 19°C
Dew Point: 63°F, 17°C
Humidity: 88%
Barometer: 30.15 inHg, 1021 hPa
Clouds: Clear
Visibility: 9 miles, 14 km
2024/07/17 13:15 KJYR 171315Z AUTO 01007KT 9SM CLR 19/17 A3015 RMK AO2
 
KOMA - Omaha/Eppley, Nebraska, USA
Distance from station: NE 53mi, 85km
Updated: Wed, 17-Jul-2024 7:52am CDT
Clear
Clear
 Wind from N
Wind: N 7 mph, 11 km/h
Temperature: 68°F, 20°C
Dew Point: 63°F, 17°C
Humidity: 83%
Barometer: 30.11 inHg, 1019.6 hPa
Clouds: Clear
Visibility: 10 miles, 16 km
2024/07/17 12:52 KOMA 171252Z 35006KT 10SM CLR 20/17 A3011 RMK AO2 SLP188 T02000172
KOLU - Columbus Muni, Nebraska, USA
Distance from station: NW 58mi, 93km
Updated: Wed, 17-Jul-2024 7:56am CDT
Partly Cloudy
Partly Cloudy
 Wind from N
Wind: N 5 mph, 7 km/h
Temperature: 68°F, 20°C
Dew Point: 63°F, 17°C
Humidity: 83%
Barometer: 30.15 inHg, 1021 hPa
Clouds: Partly Cloudy
Visibility: 10 miles, 16 km
Cloud details: Partly Cloudy 9500 ft
2024/07/17 12:56 KOLU 171256Z AUTO 35004KT 10SM SCT095 20/17 A3015 RMK AO2 SLP205 T02000167